Time;durP1;ratioP1;P1;durP2;ratioP2;P2;SDS_P1;SDS_P2;PMS_P1;PMS_P2;Temp;Humidity;BMP_temperature;BMP_pressure;BME280_temperature;BME280_humidity;BME280_pressure;Samples;Min_cycle;Max_cycle;Signal;HPM_P1;HPM_P2
2022/05/28 00:02:15;;;;;;;12.60;7.00;;;;;;;16.20;67.95;98780.98;25048;1315;3026886;-62
2022/05/28 00:04:46;;;;;;;11.20;6.90;;;;;;;15.96;68.73;98782.02;25012;1315;3026751;-67
2022/05/28 00:07:15;;;;;;;13.60;6.80;;;;;;;15.91;68.74;98778.39;25041;1315;3027698;-61
2022/05/28 00:09:45;;;;;;;15.40;7.50;;;;;;;15.77;69.40;98780.42;25098;1316;3026527;-63
2022/05/28 00:12:15;;;;;;;18.70;7.70;;;;;;;15.58;70.29;98771.60;25082;1315;3026329;-63
2022/05/28 00:14:44;;;;;;;8.80;5.50;;;;;;;15.63;70.24;98773.36;25089;1315;3029454;-66
2022/05/28 00:17:13;;;;;;;9.00;5.80;;;;;;;16.31;67.96;98764.62;25043;1315;3026915;-64
2022/05/28 00:19:43;;;;;;;18.10;6.80;;;;;;;16.46;67.13;98758.00;25208;1315;3054873;-63
2022/05/28 00:22:16;;;;;;;10.90;6.10;;;;;;;16.34;67.20;98756.20;25184;1315;3052610;-63
2022/05/28 00:24:46;;;;;;;10.80;5.70;;;;;;;15.99;68.23;98755.45;25205;1315;3026065;-60
2022/05/28 00:27:15;;;;;;;15.60;6.30;;;;;;;15.76;69.15;98752.80;25429;1315;3026407;-59
2022/05/28 00:29:44;;;;;;;11.10;6.50;;;;;;;15.64;69.23;98751.81;25465;1315;3054109;-57
2022/05/28 00:32:13;;;;;;;13.30;7.00;;;;;;;15.50;69.74;98750.73;25464;1315;3026943;-69
2022/05/28 00:34:42;;;;;;;18.30;6.80;;;;;;;15.47;69.74;98742.90;25130;1316;3051847;-61
2022/05/28 00:37:11;;;;;;;8.70;3.90;;;;;;;15.36;70.47;98755.24;25085;1315;3026688;-65
2022/05/28 00:39:40;;;;;;;10.70;4.90;;;;;;;15.92;68.58;98741.65;25123;1315;3047204;-61
2022/05/28 00:42:09;;;;;;;10.80;5.70;;;;;;;15.97;67.64;98736.88;25086;1315;3026682;-63
2022/05/28 00:44:38;;;;;;;11.70;5.70;;;;;;;15.95;67.82;98741.36;25078;1315;3069969;-67
2022/05/28 00:47:07;;;;;;;12.40;6.30;;;;;;;15.72;68.36;98738.49;25041;1315;3027405;-64
2022/05/28 00:49:36;;;;;;;9.90;6.00;;;;;;;15.58;68.51;98738.55;25006;1315;3053192;-67
2022/05/28 00:52:10;;;;;;;12.10;5.60;;;;;;;15.37;69.25;98746.64;25026;1315;3071782;-61
2022/05/28 00:54:42;;;;;;;11.40;6.40;;;;;;;15.25;69.79;98734.01;25063;1315;3026697;-67
2022/05/28 00:57:15;;;;;;;12.10;5.70;;;;;;;15.16;70.05;98731.80;25057;1316;3053750;-61
2022/05/28 00:59:45;;;;;;;9.30;4.40;;;;;;;15.25;69.71;98732.20;25060;1315;3026231;-63
2022/05/28 01:02:20;;;;;;;14.10;5.00;;;;;;;15.78;67.88;98732.98;25082;1314;3028027;-66
2022/05/28 01:05:15;;;;;;;9.30;4.90;;;;;;;15.84;67.02;98727.81;25041;1318;3051556;-68
2022/05/28 01:07:57;;;;;;;14.10;5.50;;;;;;;15.76;67.30;98728.06;25075;1315;3070749;-65
2022/05/28 01:10:54;;;;;;;10.00;5.20;;;;;;;15.66;67.27;98733.17;25086;1315;3049009;-63
2022/05/28 01:13:29;;;;;;;11.60;5.90;;;;;;;15.57;67.61;98725.23;25079;1315;3055381;-63
2022/05/28 01:16:16;;;;;;;14.80;6.10;;;;;;;15.35;68.26;98734.47;25113;1315;3053393;-62
2022/05/28 01:19:23;;;;;;;13.00;5.80;;;;;;;15.11;69.30;98728.76;25085;1315;3058754;-63
2022/05/28 01:21:55;;;;;;;10.80;5.10;;;;;;;15.06;69.05;98739.41;24977;1321;3049649;-63
2022/05/28 01:24:38;;;;;;;9.70;4.40;;;;;;;15.05;69.55;98744.44;25079;1315;3029005;-64
2022/05/28 01:27:12;;;;;;;14.30;5.10;;;;;;;15.46;68.14;98734.92;25057;1315;3051150;-62
2022/05/28 01:29:45;;;;;;;11.00;4.60;;;;;;;15.52;67.47;98740.83;25001;1316;3071265;-62
2022/05/28 01:32:14;;;;;;;10.20;4.70;;;;;;;15.58;67.16;98735.89;25064;1316;3027124;-63
2022/05/28 01:34:43;;;;;;;11.90;4.90;;;;;;;15.52;67.13;98728.13;25021;1318;3027377;-66
2022/05/28 01:37:13;;;;;;;12.60;5.20;;;;;;;15.25;67.91;98729.91;25036;1315;3026764;-65
2022/05/28 01:39:43;;;;;;;8.30;5.30;;;;;;;15.12;68.36;98727.08;25063;1316;3026910;-64
2022/05/28 01:42:12;;;;;;;13.70;5.10;;;;;;;14.96;69.04;98725.88;25110;1315;3054051;-63
2022/05/28 01:44:42;;;;;;;9.80;5.50;;;;;;;14.93;68.95;98729.87;25017;1316;3026303;-65
2022/05/28 01:47:12;;;;;;;11.10;4.30;;;;;;;14.88;69.50;98723.25;25059;1315;3049486;-65
2022/05/28 01:49:50;;;;;;;8.90;3.40;;;;;;;15.34;68.03;98728.03;25090;1315;3053756;-63
2022/05/28 01:52:19;;;;;;;10.80;4.40;;;;;;;15.62;66.72;98720.67;25022;1315;3026795;-66
2022/05/28 01:54:49;;;;;;;12.30;5.20;;;;;;;15.76;66.12;98723.13;25088;1315;3026924;-64
2022/05/28 01:57:18;;;;;;;9.70;5.20;;;;;;;15.56;66.61;98726.68;25054;1315;3054255;-69
2022/05/28 01:59:47;;;;;;;9.80;4.50;;;;;;;15.37;67.04;98727.95;25118;1315;3028329;-63
2022/05/28 02:02:16;;;;;;;10.90;4.90;;;;;;;15.05;68.29;98726.95;25114;1314;3050651;-60
2022/05/28 02:04:46;;;;;;;8.60;4.70;;;;;;;15.05;68.53;98725.07;25052;1315;3026617;-64
2022/05/28 02:07:16;;;;;;;18.50;5.30;;;;;;;15.23;67.46;98718.48;25039;1315;3069874;-67
2022/05/28 02:09:53;;;;;;;10.90;5.10;;;;;;;15.08;68.35;98725.10;25089;1315;3026804;-65
2022/05/28 02:12:25;;;;;;;9.60;3.30;;;;;;;15.06;68.48;98724.77;25104;1315;3055512;-62
2022/05/28 02:15:01;;;;;;;8.50;3.90;;;;;;;15.70;66.59;98716.59;25104;1315;3026528;-64
2022/05/28 02:18:00;;;;;;;13.40;4.50;;;;;;;16.05;65.11;98715.77;25099;1315;3058950;-67
2022/05/28 02:20:32;;;;;;;12.40;5.00;;;;;;;15.92;65.33;98713.89;25102;1315;3052641;-65
2022/05/28 02:23:30;;;;;;;12.50;4.50;;;;;;;15.69;65.91;98718.66;25052;1315;3026753;-64
2022/05/28 02:26:03;;;;;;;10.90;5.00;;;;;;;15.65;66.06;98744.14;25033;1315;3054459;-64
2022/05/28 02:28:32;;;;;;;;;;;;;;;15.54;66.52;98747.02;25099;1315;3069089;-61
2022/05/28 02:31:13;;;;;;;8.70;4.40;;;;;;;15.37;67.18;98752.27;25049;1315;3026541;-64
2022/05/28 02:33:43;;;;;;;9.40;4.30;;;;;;;15.24;67.83;98764.73;25078;1315;3050979;-65
2022/05/28 02:36:14;;;;;;;11.20;4.80;;;;;;;15.32;67.37;98776.76;25062;1315;3026371;-61
2022/05/28 02:38:43;;;;;;;9.70;4.20;;;;;;;15.30;68.02;98782.19;25086;1315;3026199;-65
2022/05/28 02:41:13;;;;;;;11.50;4.40;;;;;;;16.00;66.42;98792.77;25067;1315;3027332;-66
2022/05/28 02:43:43;;;;;;;12.30;5.40;;;;;;;16.08;65.45;98788.64;25119;1315;3026757;-65
2022/05/28 02:46:12;;;;;;;14.40;5.10;;;;;;;16.12;65.26;98794.44;25052;1315;3048089;-66
2022/05/28 02:48:42;;;;;;;8.00;4.70;;;;;;;15.89;65.90;98801.36;25110;1315;3026764;-64
2022/05/28 02:51:16;;;;;;;13.80;5.20;;;;;;;15.72;66.45;98789.83;25076;1316;3070178;-66
2022/05/28 02:53:46;;;;;;;11.10;4.50;;;;;;;15.65;66.78;98784.33;25052;1315;3048888;-64
2022/05/28 02:56:15;;;;;;;19.10;4.80;;;;;;;15.58;66.70;98793.64;25074;1315;3028837;-65
2022/05/28 02:58:45;;;;;;;9.20;5.10;;;;;;;15.47;67.42;98790.05;25102;1315;3026628;-67
2022/05/28 03:01:33;;;;;;;15.90;5.40;;;;;;;15.30;68.36;98792.64;25096;1315;3026998;-69
2022/05/28 03:04:03;;;;;;;7.20;3.40;;;;;;;15.52;67.88;98792.79;25072;1315;3055060;-66
2022/05/28 03:06:33;;;;;;;10.60;3.90;;;;;;;16.22;65.94;98797.09;25101;1315;3026591;-64
2022/05/28 03:09:03;;;;;;;10.30;3.80;;;;;;;16.50;64.63;98802.55;25098;1315;3026481;-67
2022/05/28 03:11:33;;;;;;;9.00;4.70;;;;;;;16.39;64.64;98791.73;25118;1315;3026692;-66
2022/05/28 03:14:03;;;;;;;11.60;5.00;;;;;;;16.16;65.45;98792.30;25109;1315;3026868;-64
2022/05/28 03:16:32;;;;;;;10.90;4.50;;;;;;;15.96;66.26;98803.38;25035;1316;3027109;-64
2022/05/28 03:19:01;;;;;;;15.20;5.00;;;;;;;15.89;66.37;98790.98;25036;1315;3049430;-66
2022/05/28 03:21:31;;;;;;;13.20;4.60;;;;;;;15.80;67.00;98793.73;25114;1315;3026957;-67
2022/05/28 03:24:00;;;;;;;11.10;4.50;;;;;;;15.72;67.55;98794.79;25106;1315;3056250;-65
2022/05/28 03:26:30;;;;;;;10.90;3.30;;;;;;;15.73;67.87;98795.08;25045;1315;3026614;-61
2022/05/28 03:28:59;;;;;;;7.60;3.60;;;;;;;16.48;65.97;98792.27;25114;1315;3026502;-65
2022/05/28 03:31:28;;;;;;;13.30;4.40;;;;;;;16.91;64.20;98785.84;25087;1315;3058045;-64
2022/05/28 03:33:57;;;;;;;13.00;4.80;;;;;;;16.69;64.79;98785.31;25031;1315;3027369;-64
2022/05/28 03:36:27;;;;;;;11.40;5.50;;;;;;;16.61;65.10;98787.51;25105;1315;3026581;-67
2022/05/28 03:38:56;;;;;;;14.20;5.70;;;;;;;16.53;65.45;98783.50;25073;1315;3028227;-65
2022/05/28 03:41:27;;;;;;;18.80;5.30;;;;;;;16.29;66.40;98777.46;25093;1315;3049405;-69
2022/05/28 03:43:56;;;;;;;14.80;5.60;;;;;;;16.09;67.34;98786.00;25074;1315;3027683;-68
2022/05/28 03:46:28;;;;;;;13.80;4.90;;;;;;;16.03;67.63;98770.63;25090;1315;3026212;-61
2022/05/28 03:49:04;;;;;;;14.50;5.40;;;;;;;15.98;67.81;98769.97;25032;1314;3053041;-64
2022/05/28 03:51:33;;;;;;;14.20;3.40;;;;;;;15.89;68.90;98772.77;25053;1315;3053799;-69
2022/05/28 03:54:03;;;;;;;9.50;4.30;;;;;;;16.57;67.15;98765.98;25091;1315;3027010;-66
2022/05/28 03:56:35;;;;;;;8.10;4.30;;;;;;;17.01;65.47;98763.56;25127;1315;3027519;-66
2022/05/28 03:59:04;;;;;;;17.50;4.70;;;;;;;16.99;65.00;98767.97;25060;1316;3026265;-66
2022/05/28 04:01:35;;;;;;;13.50;5.10;;;;;;;16.88;65.42;98773.84;25143;1315;3026798;-65
2022/05/28 04:04:04;;;;;;;12.70;5.20;;;;;;;17.06;64.88;98784.64;25083;1315;3027120;-63
2022/05/28 04:06:34;;;;;;;12.90;5.30;;;;;;;16.73;65.87;98777.49;25061;1315;3025916;-64
2022/05/28 04:09:04;;;;;;;13.10;5.30;;;;;;;16.49;66.84;98786.77;25051;1315;3028153;-66
2022/05/28 04:11:33;;;;;;;11.70;5.40;;;;;;;16.59;66.54;98784.20;25115;1315;3026548;-62
2022/05/28 04:14:03;;;;;;;14.20;6.30;;;;;;;16.52;66.83;98788.53;25108;1315;3026228;-65
2022/05/28 04:16:34;;;;;;;15.40;4.70;;;;;;;16.54;67.07;98783.92;25084;1316;3026511;-66
2022/05/28 04:19:03;;;;;;;10.30;4.70;;;;;;;17.06;66.07;98785.19;25057;1315;3026765;-62
2022/05/28 04:21:33;;;;;;;20.20;6.00;;;;;;;17.52;64.32;98778.66;25097;1315;3027096;-64
2022/05/28 04:24:03;;;;;;;14.00;4.70;;;;;;;17.32;64.89;98778.52;25077;1315;3069192;-67
2022/05/28 04:26:32;;;;;;;18.40;5.50;;;;;;;17.11;65.26;98786.58;25073;1315;3027454;-64
2022/05/28 04:29:01;;;;;;;18.10;5.80;;;;;;;17.02;65.64;98777.95;25063;1315;3026649;-67
2022/05/28 04:31:30;;;;;;;13.60;5.90;;;;;;;16.78;66.66;98786.63;25093;1315;3069450;-63
2022/05/28 04:33:59;;;;;;;16.80;6.00;;;;;;;16.68;66.92;98790.96;25052;1315;3026672;-66
2022/05/28 04:36:28;;;;;;;13.90;5.90;;;;;;;16.65;66.97;98790.56;25078;1315;3053098;-64
2022/05/28 04:38:57;;;;;;;14.40;5.00;;;;;;;16.50;67.98;98782.70;25047;1315;3026927;-61
2022/05/28 04:41:26;;;;;;;14.20;4.70;;;;;;;17.23;66.27;98786.67;25087;1315;3053865;-63
2022/05/28 04:43:55;;;;;;;14.20;5.00;;;;;;;17.71;64.48;98790.06;25063;1315;3027199;-63
2022/05/28 04:46:24;;;;;;;23.90;6.10;;;;;;;17.60;64.59;98799.64;25120;1315;3049838;-69
2022/05/28 04:48:53;;;;;;;17.30;5.40;;;;;;;17.56;64.87;98795.40;25064;1315;3027446;-67
2022/05/28 04:51:22;;;;;;;16.60;6.60;;;;;;;17.51;65.02;98806.91;25109;1316;3055541;-68
2022/05/28 04:53:51;;;;;;;20.80;6.40;;;;;;;17.43;65.32;98805.02;25053;1314;3027010;-63
2022/05/28 04:56:21;;;;;;;20.30;6.90;;;;;;;17.51;65.14;98810.25;25102;1315;3054247;-60
2022/05/28 04:58:50;;;;;;;12.80;5.60;;;;;;;17.58;64.87;98804.84;25077;1316;3027247;-62
2022/05/28 05:01:20;;;;;;;16.50;6.10;;;;;;;17.53;65.50;98804.95;25051;1315;3026384;-62
2022/05/28 05:03:50;;;;;;;17.40;6.40;;;;;;;17.57;65.19;98799.15;25057;1315;3052695;-65
2022/05/28 05:06:19;;;;;;;16.10;6.20;;;;;;;17.56;65.16;98807.30;25049;1315;3026867;-63
2022/05/28 05:08:48;;;;;;;14.50;4.40;;;;;;;17.72;64.83;98809.20;25239;1315;3026111;-63
2022/05/28 05:11:17;;;;;;;9.60;4.70;;;;;;;18.14;63.11;98806.66;25307;1315;3055135;-63
2022/05/28 05:13:46;;;;;;;13.70;5.00;;;;;;;18.67;61.93;98803.58;25438;1315;3026339;-63
2022/05/28 05:16:17;;;;;;;14.10;5.10;;;;;;;18.79;61.28;98809.25;25501;1315;3054171;-58
2022/05/28 05:18:46;;;;;;;18.50;5.80;;;;;;;18.75;61.12;98808.70;25489;1314;3027904;-66
2022/05/28 05:21:15;;;;;;;13.80;5.90;;;;;;;18.54;61.46;98804.48;25080;1316;3027425;-67
2022/05/28 05:23:44;;;;;;;14.00;5.90;;;;;;;18.40;61.83;98796.98;25116;1314;3054185;-68
2022/05/28 05:26:16;;;;;;;17.80;6.60;;;;;;;18.32;62.23;98809.41;25079;1315;3026505;-62
2022/05/28 05:28:45;;;;;;;18.00;6.90;;;;;;;18.27;62.23;98807.60;25088;1315;3047445;-65
2022/05/28 05:31:15;;;;;;;11.90;5.70;;;;;;;18.24;62.45;98818.02;25108;1315;3028579;-64
2022/05/28 05:33:44;;;;;;;14.40;6.00;;;;;;;18.18;62.96;98814.86;25150;1315;3027461;-63
2022/05/28 05:36:15;;;;;;;20.90;7.10;;;;;;;18.28;62.45;98817.20;25027;1315;3030213;-63
2022/05/28 05:38:44;;;;;;;16.20;7.00;;;;;;;18.32;62.08;98818.29;25083;1315;3026704;-66
2022/05/28 05:41:14;;;;;;;18.00;6.50;;;;;;;18.34;62.09;98819.46;25100;1315;3054853;-66
2022/05/28 05:43:43;;;;;;;16.60;6.30;;;;;;;18.46;62.04;98821.91;25039;1315;3028265;-65
2022/05/28 05:46:13;;;;;;;17.30;7.50;;;;;;;18.60;62.01;98832.67;25101;1316;3054158;-64
2022/05/28 05:48:43;;;;;;;20.10;7.10;;;;;;;18.64;61.21;98834.12;25048;1315;3026935;-64
2022/05/28 05:51:14;;;;;;;20.60;7.30;;;;;;;18.58;61.25;98830.27;25101;1315;3026427;-63
2022/05/28 05:53:43;;;;;;;20.60;7.30;;;;;;;18.69;60.36;98836.47;25058;1315;3052053;-66
2022/05/28 05:56:12;;;;;;;17.90;7.50;;;;;;;18.82;60.19;98832.41;25098;1315;3026604;-66
2022/05/28 05:58:41;;;;;;;22.20;9.20;;;;;;;18.87;59.16;98833.84;25064;1315;3051409;-61
2022/05/28 06:01:10;;;;;;;26.50;9.00;;;;;;;18.96;59.67;98836.09;25073;1315;3026865;-67
2022/05/28 06:03:44;;;;;;;16.30;7.70;;;;;;;19.15;58.77;98832.66;25050;1315;3070627;-64
2022/05/28 06:06:14;;;;;;;34.10;10.90;;;;;;;19.30;58.31;98833.42;25082;1315;3051208;-62
2022/05/28 06:08:43;;;;;;;28.10;11.50;;;;;;;19.20;58.21;98833.42;25037;1315;3026426;-65
2022/05/28 06:11:13;;;;;;;26.50;10.70;;;;;;;19.29;58.27;98834.19;25106;1315;3026452;-63
2022/05/28 06:13:42;;;;;;;28.00;12.00;;;;;;;19.40;58.44;98837.30;25138;1315;3026885;-66
2022/05/28 06:16:12;;;;;;;31.70;12.40;;;;;;;19.49;58.13;98836.53;25037;1315;3027010;-61
2022/05/28 06:18:41;;;;;;;36.10;14.40;;;;;;;19.53;57.74;98836.56;25054;1315;3028054;-64
2022/05/28 06:21:11;;;;;;;35.90;13.20;;;;;;;19.40;57.78;98832.09;25140;1315;3026430;-60
2022/05/28 06:23:41;;;;;;;34.60;13.10;;;;;;;19.50;57.56;98830.89;25007;1315;3028045;-64
2022/05/28 06:26:11;;;;;;;26.90;11.40;;;;;;;19.59;57.48;98818.88;25107;1316;3052902;-61
2022/05/28 06:28:40;;;;;;;26.70;11.90;;;;;;;19.68;57.47;98817.65;25114;1315;3026486;-64
2022/05/28 06:31:11;;;;;;;26.30;11.90;;;;;;;19.65;57.16;98811.35;25042;1313;3026740;-64
2022/05/28 06:33:40;;;;;;;29.50;12.90;;;;;;;19.47;57.68;98807.81;25055;1315;3055397;-66
2022/05/28 06:36:11;;;;;;;25.80;10.80;;;;;;;19.20;58.23;98808.04;25108;1315;3027453;-63
2022/05/28 06:38:41;;;;;;;24.80;10.00;;;;;;;19.20;58.12;98807.08;25031;1315;3026356;-68
2022/05/28 06:41:10;;;;;;;21.60;10.20;;;;;;;19.28;57.59;98816.20;25099;1315;3026167;-60
2022/05/28 06:43:39;;;;;;;23.00;9.80;;;;;;;19.37;57.82;98822.36;25065;1315;3050536;-65
2022/05/28 06:46:09;;;;;;;22.60;9.60;;;;;;;19.50;57.43;98825.90;25076;1315;3026914;-63
2022/05/28 06:48:39;;;;;;;18.70;8.10;;;;;;;19.63;57.28;98828.66;25061;1315;3026815;-66
2022/05/28 06:51:09;;;;;;;19.30;8.90;;;;;;;19.73;57.21;98822.73;25103;1315;3029625;-66
2022/05/28 06:53:40;;;;;;;21.40;7.70;;;;;;;19.76;57.30;98821.70;25081;1316;3026370;-65
2022/05/28 06:56:10;;;;;;;13.80;6.50;;;;;;;19.72;57.39;98815.07;25021;1315;3027059;-62
2022/05/28 06:58:39;;;;;;;16.40;7.00;;;;;;;19.87;57.10;98818.55;25070;1315;3026962;-65
2022/05/28 07:01:11;;;;;;;12.70;5.50;;;;;;;19.89;56.96;98820.35;25094;1315;3026484;-65
2022/05/28 07:03:43;;;;;;;12.60;6.10;;;;;;;19.90;57.07;98824.64;25093;1315;3026798;-66
2022/05/28 07:06:12;;;;;;;19.90;6.90;;;;;;;19.96;57.06;98824.77;25117;1315;3026842;-63
2022/05/28 07:08:43;;;;;;;20.40;6.00;;;;;;;20.02;56.88;98825.29;25093;1315;3026903;-65
2022/05/28 07:11:12;;;;;;;16.20;6.00;;;;;;;20.02;56.46;98840.59;25108;1315;3028118;-65
2022/05/28 07:13:41;;;;;;;15.20;5.70;;;;;;;19.93;56.52;98841.00;25045;1315;3070306;-61
2022/05/28 07:16:12;;;;;;;17.90;5.60;;;;;;;20.05;56.50;98835.09;25099;1315;3026845;-67
2022/05/28 07:18:42;;;;;;;22.50;6.70;;;;;;;20.06;56.46;98829.98;25101;1315;3026304;-65
2022/05/28 07:21:12;;;;;;;10.90;5.50;;;;;;;20.26;56.00;98829.19;25031;1315;3026891;-66
2022/05/28 07:23:43;;;;;;;9.00;5.10;;;;;;;20.47;55.62;98830.64;25103;1315;3050917;-65
2022/05/28 07:26:15;;;;;;;10.60;5.20;;;;;;;20.62;54.82;98828.07;25101;1315;3026628;-64
2022/05/28 07:28:44;;;;;;;15.00;5.60;;;;;;;20.53;54.08;98833.88;25022;1315;3068550;-67
2022/05/28 07:31:18;;;;;;;13.50;5.60;;;;;;;20.61;54.20;98836.31;25029;1315;3026814;-61
2022/05/28 07:33:48;;;;;;;12.20;5.40;;;;;;;20.54;54.06;98826.94;25075;1315;3052169;-63
2022/05/28 07:36:20;;;;;;;17.10;6.20;;;;;;;20.44;54.40;98835.95;25070;1315;3028536;-64
2022/05/28 07:38:50;;;;;;;12.80;5.40;;;;;;;20.56;54.08;98825.84;25042;1315;3026785;-62
2022/05/28 07:41:22;;;;;;;12.10;5.50;;;;;;;20.69;53.89;98824.96;25035;1315;3026678;-66
2022/05/28 07:43:52;;;;;;;15.60;4.60;;;;;;;20.87;53.94;98830.98;25109;1315;3026654;-65
2022/05/28 07:46:26;;;;;;;7.80;3.50;;;;;;;21.03;52.18;98837.14;25026;1315;3026405;-68
2022/05/28 07:48:57;;;;;;;11.60;4.30;;;;;;;20.90;51.84;98836.60;24938;1315;3071443;-63
2022/05/28 07:51:26;;;;;;;8.30;3.90;;;;;;;21.08;51.71;98837.61;25091;1315;3026828;-69
2022/05/28 07:53:57;;;;;;;9.90;4.60;;;;;;;21.09;51.15;98840.54;25052;1315;3026427;-67
2022/05/28 07:56:26;;;;;;;11.90;4.50;;;;;;;21.03;51.66;98837.34;25039;1316;3027142;-64
2022/05/28 07:58:55;;;;;;;8.50;4.20;;;;;;;20.99;52.09;98846.54;25120;1315;3026466;-64
2022/05/28 08:01:29;;;;;;;13.80;4.70;;;;;;;21.06;51.77;98853.58;25112;1315;3055382;-65
2022/05/28 08:04:01;;;;;;;7.50;4.40;;;;;;;21.03;52.13;98849.48;25044;1315;3054801;-64
2022/05/28 08:06:33;;;;;;;13.50;4.90;;;;;;;21.12;51.95;98846.44;25088;1315;3026838;-64
2022/05/28 08:09:02;;;;;;;9.30;4.30;;;;;;;21.26;51.53;98850.39;25107;1315;3026732;-64
2022/05/28 08:11:32;;;;;;;8.60;4.90;;;;;;;21.30;51.66;98853.41;25048;1314;3026999;-64
2022/05/28 08:14:04;;;;;;;9.10;4.20;;;;;;;21.58;51.67;98847.42;25103;1315;3030001;-66
2022/05/28 08:16:33;;;;;;;13.50;4.30;;;;;;;21.78;50.64;98852.45;25093;1315;3026875;-68
2022/05/28 08:19:02;;;;;;;13.30;6.20;;;;;;;21.89;50.29;98850.72;25110;1316;3029607;-64
2022/05/28 08:24:19;;;;;;;7.30;4.10;;;;;;;21.89;48.06;98856.30;25051;1315;3071753;-68
2022/05/28 08:26:48;;;;;;;7.60;3.50;;;;;;;22.09;48.08;98848.26;25095;1315;3027690;-63
2022/05/28 08:29:22;;;;;;;10.30;3.40;;;;;;;22.33;47.76;98847.18;25091;1315;3053297;-66
2022/05/28 08:31:51;;;;;;;9.50;4.30;;;;;;;22.51;47.45;98847.15;25044;1315;3027201;-66
2022/05/28 08:34:20;;;;;;;11.70;4.60;;;;;;;22.73;46.87;98850.93;25094;1315;3026079;-64
2022/05/28 08:36:50;;;;;;;24.00;9.10;;;;;;;22.80;46.76;98855.39;25105;1316;3053858;-63
2022/05/28 08:39:18;;;;;;;27.30;12.20;;;;;;;22.62;47.55;98860.55;25078;1315;3027002;-65
2022/05/28 08:41:57;;;;;;;39.30;14.60;;;;;;;22.26;48.17;98850.55;25110;1315;3054872;-70
2022/05/28 08:44:29;;;;;;;55.80;20.80;;;;;;;22.02;48.99;98858.19;25120;1315;3052025;-67
2022/05/28 08:47:16;;;;;;;68.30;26.00;;;;;;;21.73;49.85;98863.33;25094;1315;3026851;-67
2022/05/28 08:49:46;;;;;;;54.00;19.40;;;;;;;21.46;50.91;98859.63;25094;1315;3049956;-66
2022/05/28 08:52:31;;;;;;;54.30;20.50;;;;;;;21.35;51.39;98864.81;25197;1315;3026057;-66
2022/05/28 08:55:07;;;;;;;62.90;23.60;;;;;;;21.24;52.09;98862.31;25137;1315;3069505;-71
2022/05/28 08:57:58;;;;;;;58.30;20.20;;;;;;;21.08;52.15;98852.92;25143;1315;3049019;-67
2022/05/28 09:00:32;;;;;;;46.10;17.20;;;;;;;21.10;52.43;98850.58;25144;1315;3054072;-67
2022/05/28 09:03:24;;;;;;;39.60;14.20;;;;;;;21.06;52.60;98857.66;25143;1315;3052662;-69
2022/05/28 09:05:58;;;;;;;32.20;13.10;;;;;;;21.14;52.68;98855.30;25146;1315;3058689;-62
2022/05/28 09:08:39;;;;;;;16.20;6.40;;;;;;;21.44;51.31;98860.63;25068;1314;3052738;-71
2022/05/28 09:12:45;;;;;;;18.40;5.40;;;;;;;21.57;50.11;98868.89;31523;1319;3026398;-64
2022/05/28 09:15:14;;;;;;;11.30;4.50;;;;;;;21.35;49.66;98881.04;24880;1322;3054605;-68
2022/05/28 09:17:45;;;;;;;9.10;3.00;;;;;;;21.21;49.62;98885.48;25025;1322;3026804;-69
2022/05/28 09:20:16;;;;;;;10.90;2.80;;;;;;;20.53;50.79;98887.21;25024;1319;3026997;-65
2022/05/28 09:22:45;;;;;;;4.90;2.40;;;;;;;20.31;51.26;98892.34;25026;1318;3026949;-72
2022/05/28 09:25:17;;;;;;;9.10;2.80;;;;;;;20.22;51.30;98892.91;24917;1319;3212513;-70
2022/05/28 09:28:06;;;;;;;7.40;2.80;;;;;;;20.03;51.75;98891.11;25138;1319;3026504;-65
2022/05/28 09:30:41;;;;;;;14.70;3.50;;;;;;;19.82;52.14;98884.54;25100;1319;3069195;-64
2022/05/28 09:33:14;;;;;;;8.90;2.80;;;;;;;19.95;51.66;98894.48;25148;1318;3050403;-66
2022/05/28 09:36:08;;;;;;;5.20;2.40;;;;;;;19.84;52.16;98884.88;25025;1319;3026248;-66
2022/05/28 09:38:38;;;;;;;;;;;;;;;19.36;52.58;98888.19;25092;1318;3053056;-66
2022/05/28 09:41:29;;;;;;;8.80;2.60;;;;;;;19.38;52.54;98885.33;25070;1318;3029183;-65
2022/05/28 09:44:10;;;;;;;6.90;2.30;;;;;;;19.40;52.44;98893.77;25063;1318;3052465;-64
2022/05/28 09:46:41;;;;;;;6.20;2.50;;;;;;;19.40;52.63;98905.67;25177;1318;3051478;-65
2022/05/28 09:49:15;;;;;;;9.40;2.80;;;;;;;18.87;53.35;98913.87;25077;1317;3026274;-63
2022/05/28 09:52:10;;;;;;;6.90;2.20;;;;;;;18.75;54.11;98919.36;25129;1318;3068871;-64
2022/05/28 09:54:38;;;;;;;8.00;2.30;;;;;;;18.69;54.25;98914.66;25067;1318;3051155;-65
2022/05/28 09:57:25;;;;;;;13.20;3.50;;;;;;;18.76;54.09;98913.91;25292;1316;3026659;-63
2022/05/28 10:00:00;;;;;;;6.30;2.60;;;;;;;18.72;54.65;98912.37;25158;1316;3069022;-63
2022/05/28 10:02:33;;;;;;;7.50;2.00;;;;;;;18.85;53.92;98914.60;25338;1316;3049031;-66
2022/05/28 10:05:13;;;;;;;6.10;2.40;;;;;;;18.84;53.94;98905.96;25197;1315;3026612;-66
2022/05/28 10:07:47;;;;;;;8.80;2.40;;;;;;;18.86;54.19;98898.73;25314;1315;3054017;-66
2022/05/28 10:10:31;;;;;;;9.50;2.60;;;;;;;19.01;53.29;98897.55;25140;1316;3058608;-64
2022/05/28 10:13:16;;;;;;;9.20;2.70;;;;;;;18.94;53.43;98903.56;25137;1316;3049631;-65
2022/05/28 10:15:55;;;;;;;7.60;2.60;;;;;;;18.62;54.17;98905.23;25128;1319;3055296;-64
2022/05/28 10:18:53;;;;;;;6.00;2.60;;;;;;;18.46;54.50;98903.66;25065;1319;3054048;-64
2022/05/28 10:21:30;;;;;;;9.20;2.70;;;;;;;18.30;55.01;98904.02;25101;1318;3069175;-64
2022/05/28 10:24:02;;;;;;;8.90;2.70;;;;;;;18.35;54.65;98908.48;25076;1316;3051425;-65
2022/05/28 10:26:35;;;;;;;7.10;3.00;;;;;;;18.31;54.72;98904.70;25098;1316;3026055;-64
2022/05/28 10:29:06;;;;;;;9.00;3.20;;;;;;;18.50;54.79;98903.14;25134;1315;3052419;-63
2022/05/28 10:31:37;;;;;;;8.90;3.60;;;;;;;18.58;54.51;98899.08;25059;1316;3026478;-67
2022/05/28 10:34:06;;;;;;;13.70;5.20;;;;;;;18.68;54.00;98899.25;25120;1316;3027133;-63
2022/05/28 10:36:35;;;;;;;13.10;3.20;;;;;;;18.74;53.60;98902.64;25038;1315;3026953;-60
2022/05/28 10:39:16;;;;;;;12.40;3.80;;;;;;;18.49;54.06;98902.86;25345;1315;3026484;-62
2022/05/28 10:41:44;;;;;;;7.90;3.20;;;;;;;18.47;53.76;98906.02;25823;1315;3050139;-66
2022/05/28 10:44:15;;;;;;;13.10;3.60;;;;;;;18.48;53.87;98891.80;25673;1315;3026163;-67
2022/05/28 10:46:50;;;;;;;11.20;3.10;;;;;;;18.43;53.32;98892.96;25114;1314;3057206;-64
2022/05/28 10:49:33;;;;;;;13.50;3.20;;;;;;;18.28;53.46;98897.70;25026;1315;3052143;-67
2022/05/28 10:52:22;;;;;;;9.30;3.10;;;;;;;18.44;53.16;98899.83;25060;1315;3053965;-63
2022/05/28 10:54:57;;;;;;;7.90;2.80;;;;;;;18.37;53.33;98903.20;25105;1315;3053691;-67
2022/05/28 10:57:32;;;;;;;9.90;2.30;;;;;;;18.48;52.87;98903.86;25149;1315;3071042;-65
2022/05/28 11:00:11;;;;;;;9.00;2.50;;;;;;;18.28;52.92;98898.54;25106;1315;3052490;-70
2022/05/28 11:03:11;;;;;;;12.80;2.50;;;;;;;18.40;52.76;98898.08;25497;1315;3052621;-67
2022/05/28 11:06:32;;;;;;;4.40;2.60;;;;;;;18.50;52.23;98900.76;25054;1315;3053431;-65
2022/05/28 11:09:13;;;;;;;7.40;2.70;;;;;;;18.58;52.38;98901.05;25034;1315;3059324;-68
2022/05/28 11:12:02;;;;;;;6.10;2.50;;;;;;;18.57;52.54;98897.63;25058;1316;3049394;-68
2022/05/28 11:15:03;;;;;;;6.80;2.30;;;;;;;18.65;51.96;98903.49;25100;1315;3054691;-67
2022/05/28 11:18:18;;;;;;;8.50;2.30;;;;;;;18.64;52.24;98907.55;25114;1315;3052784;-71
2022/05/28 11:21:19;;;;;;;9.30;2.60;;;;;;;18.66;52.01;98899.12;25120;1316;3070586;-65
2022/05/28 11:23:54;;;;;;;7.10;2.30;;;;;;;18.75;51.46;98902.11;25090;1315;3052226;-67
2022/05/28 11:26:42;;;;;;;7.90;3.30;;;;;;;18.80;51.27;98892.58;25092;1315;3055626;-65
2022/05/28 11:29:33;;;;;;;14.70;5.50;;;;;;;18.97;50.59;98887.52;25088;1315;3052218;-66
2022/05/28 11:32:26;;;;;;;13.60;4.60;;;;;;;19.11;50.15;98884.90;25072;1315;3057088;-63
2022/05/28 11:34:57;;;;;;;7.80;2.90;;;;;;;19.30;49.92;98893.00;25037;1315;3052501;-66
2022/05/28 11:37:28;;;;;;;5.40;2.50;;;;;;;19.30;49.62;98891.47;25113;1315;3026356;-68
2022/05/28 11:40:18;;;;;;;9.10;3.20;;;;;;;19.21;50.06;98892.75;25136;1315;3026570;-64
2022/05/28 11:43:11;;;;;;;9.00;2.80;;;;;;;19.22;49.76;98886.95;25039;1315;3071781;-70
2022/05/28 11:45:50;;;;;;;6.40;2.60;;;;;;;19.19;49.98;98889.91;25075;1315;3048874;-66